Time;durP1;ratioP1;P1;durP2;ratioP2;P2;SDS_P1;SDS_P2;PMS_P1;PMS_P2;Temp;Humidity;BMP_temperature;BMP_pressure;BME280_temperature;BME280_humidity;BME280_pressure;Samples;Min_cycle;Max_cycle;Signal;HPM_P1;HPM_P2
2022/05/19 00:01:30;;;;;;;;;;;26.20;51.90;;;;;;5054151;28;19920;-62
2022/05/19 00:03:56;;;;;;;;;;;26.20;51.90;;;;;;5055434;28;19913;-61
2022/05/19 00:06:21;;;;;;;;;;;26.20;51.90;;;;;;5055611;28;19909;-62
2022/05/19 00:08:47;;;;;;;;;;;26.20;51.90;;;;;;5055594;28;19909;-61
2022/05/19 00:11:13;;;;;;;;;;;26.20;51.80;;;;;;5055104;28;19956;-61
2022/05/19 00:13:39;;;;;;;;;;;26.20;51.90;;;;;;5055095;28;19913;-61
2022/05/19 00:16:05;;;;;;;;;;;26.10;51.80;;;;;;5054048;28;20055;-61
2022/05/19 00:18:31;;;;;;;;;;;26.20;51.80;;;;;;5055114;28;20319;-61
2022/05/19 00:20:56;;;;;;;;;;;26.10;51.70;;;;;;5054993;28;19909;-61
2022/05/19 00:23:21;;;;;;;;;;;26.20;51.80;;;;;;5053623;28;19916;-61
2022/05/19 00:25:47;;;;;;;;;;;26.20;51.80;;;;;;5053717;28;19916;-61
2022/05/19 00:28:13;;;;;;;;;;;26.20;51.80;;;;;;5055102;28;19955;-61
2022/05/19 00:30:38;;;;;;;;;;;26.20;51.80;;;;;;5054909;28;19934;-62
2022/05/19 00:33:04;;;;;;;;;;;26.20;51.70;;;;;;5054781;28;19912;-61
2022/05/19 00:35:29;;;;;;;;;;;26.20;51.80;;;;;;5053430;28;19913;-61
2022/05/19 00:37:55;;;;;;;;;;;26.20;51.80;;;;;;5054210;28;20296;-62
2022/05/19 00:40:20;;;;;;;;;;;26.10;51.70;;;;;;5054573;28;20007;-62
2022/05/19 00:42:46;;;;;;;;;;;26.20;51.80;;;;;;5054638;28;19916;-61
2022/05/19 00:45:16;;;;;;;;;;;26.10;51.70;;;;;;5054295;28;20419;-61
2022/05/19 00:47:46;;;;;;;;;;;26.10;51.70;;;;;;5054593;28;19920;-62
2022/05/19 00:50:22;;;;;;;;;;;26.20;51.90;;;;;;5054710;28;19924;-61
2022/05/19 00:52:47;;;;;;;;;;;26.20;51.80;;;;;;5053115;28;19920;-61
2022/05/19 00:55:14;;;;;;;;;;;26.20;51.90;;;;;;5054305;28;20286;-62
2022/05/19 00:57:44;;;;;;;;;;;26.10;51.80;;;;;;5054403;28;19913;-61
2022/05/19 01:00:10;;;;;;;;;;;26.10;51.80;;;;;;5054386;28;20419;-61
2022/05/19 01:02:46;;;;;;;;;;;26.10;51.80;;;;;;5052959;28;20011;-62
2022/05/19 01:05:13;;;;;;;;;;;26.10;51.70;;;;;;5053036;28;19959;-61
2022/05/19 01:07:43;;;;;;;;;;;26.10;51.90;;;;;;5053131;28;19909;-61
2022/05/19 01:10:08;;;;;;;;;;;26.10;51.90;;;;;;5054023;28;19908;-61
2022/05/19 01:12:34;;;;;;;;;;;26.10;51.80;;;;;;5036022;28;19909;-61
2022/05/19 01:15:02;;;;;;;;;;;26.10;51.90;;;;;;5054304;28;19915;-61
2022/05/19 01:17:28;;;;;;;;;;;26.10;51.90;;;;;;5052638;28;19909;-61
2022/05/19 01:19:55;;;;;;;;;;;26.10;51.70;;;;;;5052640;28;20281;-61
2022/05/19 01:22:39;;;;;;;;;;;26.10;51.70;;;;;;5053741;28;19913;-61
2022/05/19 01:25:04;;;;;;;;;;;26.10;51.80;;;;;;5053856;28;19908;-61
2022/05/19 01:27:30;;;;;;;;;;;26.10;51.70;;;;;;5053769;28;19936;-61
2022/05/19 01:29:55;;;;;;;;;;;26.10;51.70;;;;;;5053756;28;20412;-61
2022/05/19 01:32:21;;;;;;;;;;;26.20;51.70;;;;;;5053588;28;19908;-61
2022/05/19 01:34:47;;;;;;;;;;;26.10;51.60;;;;;;5053667;28;19959;-61
2022/05/19 01:37:12;;;;;;;;;;;26.10;51.60;;;;;;5053708;28;19944;-62
2022/05/19 01:39:38;;;;;;;;;;;26.20;51.60;;;;;;5053782;28;19959;-61
2022/05/19 01:42:07;;;;;;;;;;;26.10;51.60;;;;;;5053554;28;19916;-61
2022/05/19 01:44:45;;;;;;;;;;;26.20;51.60;;;;;;5053714;28;19908;-61
2022/05/19 01:47:29;;;;;;;;;;;26.10;51.50;;;;;;5052218;28;20425;-62
2022/05/19 01:50:14;;;;;;;;;;;26.10;52.20;;;;;;5052068;28;19915;-61
2022/05/19 01:52:43;;;;;;;;;;;26.10;51.60;;;;;;5053531;28;19917;-61
2022/05/19 01:55:09;;;;;;;;;;;26.10;51.50;;;;;;5053317;28;19909;-61
2022/05/19 01:57:36;;;;;;;;;;;26.10;51.40;;;;;;5053265;28;19913;-61
2022/05/19 02:00:04;;;;;;;;;;;26.10;51.40;;;;;;5053282;28;20334;-61
2022/05/19 02:02:35;;;;;;;;;;;26.10;51.40;;;;;;5052010;28;19909;-61
2022/05/19 02:05:19;;;;;;;;;;;26.10;51.40;;;;;;5053123;28;19956;-61
2022/05/19 02:07:45;;;;;;;;;;;26.10;51.40;;;;;;5053330;28;19909;-61
2022/05/19 02:10:14;;;;;;;;;;;26.20;51.50;;;;;;5053034;28;19913;-61
2022/05/19 02:12:39;;;;;;;;;;;26.20;51.50;;;;;;5051820;28;19913;-61
2022/05/19 02:15:07;;;;;;;;;;;26.10;51.40;;;;;;5052973;28;19959;-61
2022/05/19 02:17:32;;;;;;;;;;;26.20;51.40;;;;;;5052936;28;19909;-62
2022/05/19 02:20:00;;;;;;;;;;;26.20;51.40;;;;;;5052990;28;20372;-61
2022/05/19 02:22:28;;;;;;;;;;;26.20;51.30;;;;;;5051675;28;20382;-61
2022/05/19 02:24:55;;;;;;;;;;;26.10;51.30;;;;;;5052879;28;19916;-61
2022/05/19 02:27:22;;;;;;;;;;;26.10;51.30;;;;;;5051655;28;19944;-61
2022/05/19 02:29:47;;;;;;;;;;;26.20;51.30;;;;;;5051643;28;20380;-61
2022/05/19 02:32:13;;;;;;;;;;;26.10;51.20;;;;;;5052835;28;19935;-61
2022/05/19 02:34:38;;;;;;;;;;;26.10;51.20;;;;;;5052798;28;19920;-62
2022/05/19 02:37:05;;;;;;;;;;;26.20;51.30;;;;;;5052792;28;19916;-61
2022/05/19 02:39:30;;;;;;;;;;;26.10;51.20;;;;;;5051726;28;19917;-61
2022/05/19 02:41:57;;;;;;;;;;;26.10;51.20;;;;;;5053079;28;19908;-61
2022/05/19 02:44:22;;;;;;;;;;;26.10;51.10;;;;;;5052930;28;19908;-62
2022/05/19 02:46:48;;;;;;;;;;;26.20;51.30;;;;;;5052528;28;19924;-61
2022/05/19 02:49:13;;;;;;;;;;;26.10;51.20;;;;;;5052665;28;19947;-61
2022/05/19 02:51:38;;;;;;;;;;;26.10;51.30;;;;;;5052693;28;20392;-61
2022/05/19 02:54:04;;;;;;;;;;;26.10;51.20;;;;;;5052608;28;19917;-61
2022/05/19 02:56:30;;;;;;;;;;;26.10;51.20;;;;;;5052629;28;20665;-61
2022/05/19 02:58:55;;;;;;;;;;;26.10;51.20;;;;;;5052590;28;19956;-61
2022/05/19 03:01:21;;;;;;;;;;;26.10;51.10;;;;;;5056240;28;19932;-61
2022/05/19 03:03:48;;;;;;;;;;;26.10;51.20;;;;;;5056469;28;19909;-61
2022/05/19 03:06:13;;;;;;;;;;;26.10;51.20;;;;;;5056582;28;20379;-62
2022/05/19 03:08:39;;;;;;;;;;;26.10;51.10;;;;;;5056712;28;20043;-61
2022/05/19 03:11:04;;;;;;;;;;;26.10;51.20;;;;;;5055167;28;19916;-61
2022/05/19 03:13:29;;;;;;;;;;;26.10;51.10;;;;;;5054971;28;19921;-61
2022/05/19 03:15:55;;;;;;;;;;;26.10;51.20;;;;;;5056866;28;19999;-62
2022/05/19 03:18:21;;;;;;;;;;;26.10;51.20;;;;;;5056253;28;19913;-61
2022/05/19 03:20:46;;;;;;;;;;;26.00;51.10;;;;;;5054800;28;20323;-61
2022/05/19 03:23:12;;;;;;;;;;;26.10;51.20;;;;;;5054860;28;19945;-61
2022/05/19 03:25:37;;;;;;;;;;;26.10;51.30;;;;;;5056007;28;19948;-61
2022/05/19 03:28:03;;;;;;;;;;;26.00;51.20;;;;;;5056008;28;19931;-61
2022/05/19 03:30:28;;;;;;;;;;;26.00;51.10;;;;;;5056174;28;19909;-61
2022/05/19 03:32:54;;;;;;;;;;;26.00;51.20;;;;;;5055915;28;19912;-61
2022/05/19 03:35:19;;;;;;;;;;;26.10;51.30;;;;;;5055845;28;19909;-62
2022/05/19 03:37:45;;;;;;;;;;;26.10;51.20;;;;;;5056184;28;19920;-61
2022/05/19 03:40:10;;;;;;;;;;;26.00;51.20;;;;;;5055418;28;20382;-61
2022/05/19 03:42:36;;;;;;;;;;;26.10;51.30;;;;;;5055521;28;19909;-61
2022/05/19 03:45:03;;;;;;;;;;;26.00;51.40;;;;;;5055361;28;19962;-61
2022/05/19 03:47:28;;;;;;;;;;;26.00;51.40;;;;;;5055452;28;19916;-61
2022/05/19 03:49:54;;;;;;;;;;;26.00;51.40;;;;;;5055523;28;19909;-61
2022/05/19 03:52:19;;;;;;;;;;;26.00;51.40;;;;;;5055337;28;19909;-61
2022/05/19 03:54:45;;;;;;;;;;;26.00;51.60;;;;;;5053804;28;19917;-61
2022/05/19 03:57:12;;;;;;;;;;;26.00;51.50;;;;;;5055296;28;19961;-61
2022/05/19 03:59:38;;;;;;;;;;;25.90;51.60;;;;;;5055365;28;19909;-61
2022/05/19 04:02:03;;;;;;;;;;;25.90;51.40;;;;;;5055298;28;19935;-61
2022/05/19 04:04:29;;;;;;;;;;;26.00;51.50;;;;;;5055393;28;19916;-61
2022/05/19 04:06:54;;;;;;;;;;;26.00;51.60;;;;;;5054150;28;19999;-62
2022/05/19 04:09:20;;;;;;;;;;;25.90;51.50;;;;;;5054328;28;19912;-61
2022/05/19 04:11:45;;;;;;;;;;;25.90;51.50;;;;;;5052651;28;19931;-61
2022/05/19 04:14:11;;;;;;;;;;;26.00;51.60;;;;;;5053784;28;19995;-61
2022/05/19 04:16:37;;;;;;;;;;;25.90;51.60;;;;;;5055033;28;19909;-61
2022/05/19 04:19:03;;;;;;;;;;;25.90;51.60;;;;;;5053861;28;20284;-61
2022/05/19 04:21:28;;;;;;;;;;;25.90;51.60;;;;;;5054898;28;19909;-61
2022/05/19 04:23:54;;;;;;;;;;;25.90;51.70;;;;;;5054900;28;19909;-61
2022/05/19 04:26:19;;;;;;;;;;;25.90;51.70;;;;;;5054757;28;19909;-61
2022/05/19 04:28:44;;;;;;;;;;;25.90;51.60;;;;;;5054620;28;19982;-62
2022/05/19 04:31:10;;;;;;;;;;;25.90;51.60;;;;;;5053390;28;20307;-61
2022/05/19 04:33:35;;;;;;;;;;;25.90;51.70;;;;;;5053276;28;19963;-61
2022/05/19 04:36:04;;;;;;;;;;;25.90;51.60;;;;;;5054792;28;19915;-61
2022/05/19 04:38:30;;;;;;;;;;;25.90;51.60;;;;;;5053661;28;19931;-61
2022/05/19 04:40:58;;;;;;;;;;;25.90;51.60;;;;;;5053222;28;19958;-62
2022/05/19 04:43:24;;;;;;;;;;;25.90;51.60;;;;;;5053433;28;19931;-62
2022/05/19 04:45:53;;;;;;;;;;;25.80;51.70;;;;;;5053206;28;20365;-61
2022/05/19 04:48:18;;;;;;;;;;;25.90;51.80;;;;;;5053435;28;19916;-61
2022/05/19 04:50:44;;;;;;;;;;;25.80;51.70;;;;;;5053106;28;20313;-61
2022/05/19 04:53:09;;;;;;;;;;;25.80;51.80;;;;;;5036290;28;19923;-61
2022/05/19 04:55:35;;;;;;;;;;;25.90;51.80;;;;;;5054239;28;19913;-61
2022/05/19 04:58:01;;;;;;;;;;;25.80;51.90;;;;;;5054303;28;19952;-62
2022/05/19 05:00:26;;;;;;;;;;;25.80;51.90;;;;;;5054259;28;20296;-61
2022/05/19 05:02:52;;;;;;;;;;;25.80;51.90;;;;;;5052879;28;19909;-61
2022/05/19 05:05:17;;;;;;;;;;;25.80;51.80;;;;;;5054118;28;19913;-62
2022/05/19 05:07:43;;;;;;;;;;;25.80;51.90;;;;;;5054254;28;19999;-62
2022/05/19 05:10:08;;;;;;;;;;;25.70;51.90;;;;;;5036121;28;20361;-61
2022/05/19 05:12:34;;;;;;;;;;;25.80;51.90;;;;;;5053947;28;20365;-61
2022/05/19 05:14:59;;;;;;;;;;;25.80;51.90;;;;;;5053906;28;19909;-61
2022/05/19 05:17:25;;;;;;;;;;;25.80;51.90;;;;;;5052587;28;20325;-61
2022/05/19 05:19:50;;;;;;;;;;;25.80;51.80;;;;;;5053951;28;20012;-62
2022/05/19 05:22:16;;;;;;;;;;;25.80;51.80;;;;;;5053337;28;19908;-62
2022/05/19 05:24:41;;;;;;;;;;;25.90;51.70;;;;;;5053684;28;19916;-62
2022/05/19 05:27:07;;;;;;;;;;;25.90;51.70;;;;;;5053439;28;20361;-61
2022/05/19 05:29:32;;;;;;;;;;;25.80;51.60;;;;;;5053270;28;20353;-61
2022/05/19 05:31:58;;;;;;;;;;;25.80;51.70;;;;;;5053355;28;20353;-61
2022/05/19 05:34:23;;;;;;;;;;;25.70;51.70;;;;;;5053334;28;20360;-62
2022/05/19 05:36:49;;;;;;;;;;;25.70;51.70;;;;;;5053636;28;19909;-62
2022/05/19 05:39:14;;;;;;;;;;;25.80;51.80;;;;;;5053746;28;20365;-62
2022/05/19 05:41:40;;;;;;;;;;;25.80;51.80;;;;;;5052350;28;19908;-61
2022/05/19 05:44:05;;;;;;;;;;;25.80;51.80;;;;;;5053365;28;19935;-62
2022/05/19 05:46:31;;;;;;;;;;;25.80;51.80;;;;;;5053251;28;19924;-62
2022/05/19 05:48:56;;;;;;;;;;;25.80;51.70;;;;;;5053493;28;19909;-62
2022/05/19 05:51:21;;;;;;;;;;;25.80;51.70;;;;;;5053393;28;19909;-62
2022/05/19 05:53:47;;;;;;;;;;;25.80;51.70;;;;;;5053242;28;19917;-62
2022/05/19 05:56:15;;;;;;;;;;;25.70;51.70;;;;;;5053089;28;20437;-62
2022/05/19 05:58:41;;;;;;;;;;;25.80;51.60;;;;;;5051991;28;19913;-61
2022/05/19 06:01:06;;;;;;;;;;;25.80;51.70;;;;;;5052952;28;19916;-62
2022/05/19 06:03:32;;;;;;;;;;;25.70;51.70;;;;;;5034994;28;19920;-62
2022/05/19 06:05:58;;;;;;;;;;;25.80;51.80;;;;;;5051914;28;20382;-62
2022/05/19 06:08:23;;;;;;;;;;;25.80;51.80;;;;;;5053173;28;19965;-62
2022/05/19 06:10:49;;;;;;;;;;;25.70;51.80;;;;;;5051664;28;19909;-61
2022/05/19 06:13:15;;;;;;;;;;;25.70;51.80;;;;;;5052924;28;20383;-62
2022/05/19 06:15:41;;;;;;;;;;;25.80;51.90;;;;;;5035099;28;20300;-61
2022/05/19 06:18:06;;;;;;;;;;;25.80;51.90;;;;;;5051646;28;19912;-61
2022/05/19 06:20:32;;;;;;;;;;;25.80;51.80;;;;;;5052828;28;19909;-62
2022/05/19 06:22:58;;;;;;;;;;;25.80;51.80;;;;;;5052819;28;19909;-61
2022/05/19 06:25:24;;;;;;;;;;;25.70;51.70;;;;;;5053151;28;19915;-61
2022/05/19 06:27:50;;;;;;;;;;;25.80;51.80;;;;;;5051489;28;20311;-62
2022/05/19 06:30:16;;;;;;;;;;;25.80;51.90;;;;;;5052745;28;20019;-61
2022/05/19 06:32:42;;;;;;;;;;;25.80;51.80;;;;;;5053205;28;19909;-62
2022/05/19 06:35:12;;;;;;;;;;;25.80;51.90;;;;;;5036389;28;19916;-62
2022/05/19 06:37:37;;;;;;;;;;;25.70;51.80;;;;;;5057087;28;19909;-61
2022/05/19 06:40:03;;;;;;;;;;;25.70;51.80;;;;;;5055564;28;19962;-61
2022/05/19 06:42:28;;;;;;;;;;;25.70;51.90;;;;;;5056440;28;19908;-62
2022/05/19 06:44:56;;;;;;;;;;;25.70;51.80;;;;;;5056167;28;19931;-61
2022/05/19 06:47:21;;;;;;;;;;;25.80;51.80;;;;;;5056407;28;20006;-61
2022/05/19 06:49:47;;;;;;;;;;;25.80;51.90;;;;;;5055484;28;19944;-61
2022/05/19 06:52:17;;;;;;;;;;;25.70;51.90;;;;;;5056766;28;19916;-62
2022/05/19 06:54:46;;;;;;;;;;;25.70;51.90;;;;;;5056629;28;19916;-61
2022/05/19 06:57:11;;;;;;;;;;;25.70;52.00;;;;;;5056560;28;19920;-61
2022/05/19 06:59:37;;;;;;;;;;;25.70;52.00;;;;;;5056508;28;20293;-61
2022/05/19 07:02:03;;;;;;;;;;;25.70;52.70;;;;;;5056482;28;19970;-62
2022/05/19 07:04:28;;;;;;;;;;;25.70;52.20;;;;;;5056934;28;19909;-61
2022/05/19 07:06:54;;;;;;;;;;;25.70;52.30;;;;;;5056380;28;19916;-62
2022/05/19 07:09:19;;;;;;;;;;;25.80;52.30;;;;;;5056697;28;19909;-61
2022/05/19 07:11:44;;;;;;;;;;;25.70;52.20;;;;;;5055000;28;20015;-61
2022/05/19 07:14:10;;;;;;;;;;;25.70;52.50;;;;;;5056178;28;20033;-61
2022/05/19 07:16:35;;;;;;;;;;;25.80;52.10;;;;;;5055129;28;19913;-61
2022/05/19 07:21:45;;;;;;;;;;;25.90;52.20;;;;;;5054993;28;19958;-61
2022/05/19 07:24:16;;;;;;;;;;;26.00;52.30;;;;;;5056056;28;20007;-61
2022/05/19 07:26:44;;;;;;;;;;;26.00;52.20;;;;;;5056090;28;19913;-61
2022/05/19 07:29:10;;;;;;;;;;;25.90;52.20;;;;;;5055962;28;19909;-62
2022/05/19 07:31:36;;;;;;;;;;;26.00;52.40;;;;;;5055841;28;19913;-61
2022/05/19 07:34:02;;;;;;;;;;;26.00;52.40;;;;;;5055802;28;20391;-62
2022/05/19 07:36:27;;;;;;;;;;;26.00;53.10;;;;;;5055872;28;19909;-62
2022/05/19 07:38:54;;;;;;;;;;;26.00;52.50;;;;;;5056084;28;19991;-61
2022/05/19 07:41:19;;;;;;;;;;;25.90;52.50;;;;;;5055649;28;19955;-62
2022/05/19 07:43:45;;;;;;;;;;;25.90;52.50;;;;;;5054504;28;19909;-62
2022/05/19 07:46:11;;;;;;;;;;;26.00;52.70;;;;;;5053925;28;19921;-61
2022/05/19 07:48:37;;;;;;;;;;;25.90;52.70;;;;;;5056060;28;19962;-61
2022/05/19 07:51:03;;;;;;;;;;;26.00;52.60;;;;;;5055348;28;19908;-61
2022/05/19 07:53:28;;;;;;;;;;;25.90;52.50;;;;;;5055475;28;19916;-61
2022/05/19 07:55:54;;;;;;;;;;;26.00;52.50;;;;;;5055339;28;19909;-61
2022/05/19 07:58:20;;;;;;;;;;;26.00;52.50;;;;;;5055175;28;19996;-61
2022/05/19 08:00:46;;;;;;;;;;;26.00;52.40;;;;;;5055214;28;19909;-61
2022/05/19 08:03:12;;;;;;;;;;;26.00;52.40;;;;;;5055147;28;19909;-61
2022/05/19 08:05:38;;;;;;;;;;;26.00;52.30;;;;;;5053923;28;20387;-61
2022/05/19 08:08:03;;;;;;;;;;;26.00;52.30;;;;;;5055392;28;19912;-62
2022/05/19 08:10:29;;;;;;;;;;;26.10;52.30;;;;;;5055302;28;19908;-62
2022/05/19 08:15:40;;;;;;;;;;;26.10;52.20;;;;;;5055051;28;19915;-61
2022/05/19 08:18:07;;;;;;;;;;;26.10;51.90;;;;;;5053736;28;19913;-62
2022/05/19 08:20:33;;;;;;;;;;;26.10;52.00;;;;;;5054852;28;20466;-62
2022/05/19 08:22:58;;;;;;;;;;;26.10;51.80;;;;;;5054953;28;19935;-61
2022/05/19 08:25:28;;;;;;;;;;;26.20;51.90;;;;;;5054751;28;19909;-61
2022/05/19 08:27:54;;;;;;;;;;;26.20;51.90;;;;;;5054668;28;20416;-62
2022/05/19 08:30:19;;;;;;;;;;;26.20;51.80;;;;;;5053437;28;19962;-62
2022/05/19 08:32:45;;;;;;;;;;;26.20;51.60;;;;;;5053341;28;20000;-62
2022/05/19 08:35:10;;;;;;;;;;;26.20;51.60;;;;;;5054525;28;19913;-61
2022/05/19 08:37:36;;;;;;;;;;;26.20;51.60;;;;;;5054825;28;19909;-62
2022/05/19 08:40:01;;;;;;;;;;;26.20;51.50;;;;;;5054445;28;19931;-62
2022/05/19 08:42:27;;;;;;;;;;;26.20;51.50;;;;;;5054384;28;19995;-61
2022/05/19 08:44:54;;;;;;;;;;;26.20;51.40;;;;;;5052988;28;19909;-62
2022/05/19 08:47:20;;;;;;;;;;;26.20;51.20;;;;;;5054486;28;19909;-62
2022/05/19 08:49:46;;;;;;;;;;;26.20;51.50;;;;;;5054294;28;19915;-61
2022/05/19 08:52:12;;;;;;;;;;;26.20;51.30;;;;;;5054428;28;19908;-61
2022/05/19 08:54:39;;;;;;;;;;;26.20;51.50;;;;;;5054597;28;20345;-61
2022/05/19 08:57:11;;;;;;;;;;;26.20;51.10;;;;;;5052500;28;19909;-61
2022/05/19 08:59:55;;;;;;;;;;;26.20;51.00;;;;;;5052567;28;19915;-62
2022/05/19 09:02:25;;;;;;;;;;;26.30;50.80;;;;;;5053683;28;19955;-61
2022/05/19 09:04:57;;;;;;;;;;;26.30;50.60;;;;;;5052715;28;19920;-61
2022/05/19 09:10:09;;;;;;;;;;;26.30;50.60;;;;;;5052802;28;20387;-62
2022/05/19 09:12:36;;;;;;;;;;;26.30;50.50;;;;;;5053807;28;19909;-61
2022/05/19 09:15:02;;;;;;;;;;;26.40;50.60;;;;;;5052576;28;20000;-61
2022/05/19 09:17:28;;;;;;;;;;;26.40;50.40;;;;;;5053675;28;19909;-61
2022/05/19 09:19:55;;;;;;;;;;;26.40;50.40;;;;;;5052561;28;19913;-61
2022/05/19 09:22:21;;;;;;;;;;;26.40;50.20;;;;;;5052607;28;19947;-61
2022/05/19 09:24:47;;;;;;;;;;;26.40;50.00;;;;;;5052222;28;19913;-61
2022/05/19 09:27:13;;;;;;;;;;;26.40;50.00;;;;;;5052483;28;19916;-61
2022/05/19 09:29:44;;;;;;;;;;;26.40;50.00;;;;;;5052267;28;19909;-61
2022/05/19 09:32:12;;;;;;;;;;;26.50;50.00;;;;;;5053932;28;19913;-61
2022/05/19 09:34:38;;;;;;;;;;;26.50;50.00;;;;;;5053598;28;19912;-61
2022/05/19 09:37:09;;;;;;;;;;;26.50;49.90;;;;;;5052184;28;19916;-62
2022/05/19 09:39:41;;;;;;;;;;;26.50;49.80;;;;;;5068475;28;19995;-61
2022/05/19 09:42:12;;;;;;;;;;;26.50;49.80;;;;;;5073307;28;19934;-62
2022/05/19 09:44:50;;;;;;;;;;;26.50;49.80;;;;;;5073461;28;19909;-62
2022/05/19 09:47:17;;;;;;;;;;;26.50;50.00;;;;;;5073388;28;19912;-62
2022/05/19 09:49:44;;;;;;;;;;;26.50;50.00;;;;;;5072212;28;20011;-61
2022/05/19 09:52:15;;;;;;;;;;;26.60;49.80;;;;;;5072077;28;19916;-62
2022/05/19 09:54:41;;;;;;;;;;;26.60;49.70;;;;;;5071992;28;19920;-61
2022/05/19 09:57:10;;;;;;;;;;;26.60;50.00;;;;;;5071975;28;19908;-61
2022/05/19 09:59:36;;;;;;;;;;;26.60;49.60;;;;;;5071733;28;19970;-62
2022/05/19 10:02:18;;;;;;;;;;;26.60;49.60;;;;;;5071813;28;19947;-62
2022/05/19 10:04:55;;;;;;;;;;;26.60;49.60;;;;;;5073013;28;19908;-62
2022/05/19 10:07:24;;;;;;;;;;;26.60;49.60;;;;;;5072771;28;19912;-61
2022/05/19 10:09:50;;;;;;;;;;;26.70;49.70;;;;;;5072568;28;19908;-62
2022/05/19 10:12:20;;;;;;;;;;;26.70;49.60;;;;;;5071666;28;20413;-62
2022/05/19 10:14:47;;;;;;;;;;;26.70;49.50;;;;;;5079528;28;20291;-61
2022/05/19 10:17:42;;;;;;;;;;;26.80;49.50;;;;;;5071612;28;19908;-61
2022/05/19 10:20:21;;;;;;;;;;;26.80;49.70;;;;;;5068183;28;20372;-61
2022/05/19 10:23:05;;;;;;;;;;;26.80;49.70;;;;;;5072809;28;19908;-61
2022/05/19 10:25:49;;;;;;;;;;;26.80;49.70;;;;;;5072604;28;20359;-61
2022/05/19 10:31:29;;;;;;;;;;;26.80;49.70;;;;;;5044313;28;20268;-62
2022/05/19 10:34:15;;;;;;;;;;;26.80;49.40;;;;;;5071390;28;19969;-61
2022/05/19 10:36:45;;;;;;;;;;;26.80;49.40;;;;;;5072770;28;19915;-61
2022/05/19 10:39:18;;;;;;;;;;;26.80;49.50;;;;;;5078919;28;20399;-62
2022/05/19 10:41:43;;;;;;;;;;;26.90;49.30;;;;;;5071330;28;20272;-61
2022/05/19 10:44:27;;;;;;;;;;;26.90;49.40;;;;;;5072477;28;19962;-62
2022/05/19 10:46:58;;;;;;;;;;;26.90;49.50;;;;;;5072404;28;19962;-62
2022/05/19 10:49:50;;;;;;;;;;;26.90;49.20;;;;;;5072602;28;19946;-62
2022/05/19 10:52:19;;;;;;;;;;;26.90;49.20;;;;;;5055654;28;19909;-62
2022/05/19 10:55:04;;;;;;;;;;;26.80;49.50;;;;;;5071282;28;20458;-61
2022/05/19 10:57:34;;;;;;;;;;;26.90;49.70;;;;;;5072010;28;20380;-61
2022/05/19 10:59:59;;;;;;;;;;;26.90;49.40;;;;;;5072432;28;19908;-61
2022/05/19 11:02:36;;;;;;;;;;;26.90;49.50;;;;;;5072382;28;19962;-62
2022/05/19 11:05:21;;;;;;;;;;;26.90;49.40;;;;;;5072467;28;19908;-62
2022/05/19 11:07:48;;;;;;;;;;;26.90;49.50;;;;;;5071813;28;19958;-61
2022/05/19 11:10:16;;;;;;;;;;;26.90;49.40;;;;;;5072325;28;19978;-61
2022/05/19 11:12:46;;;;;;;;;;;27.00;49.60;;;;;;5072279;28;19913;-61
2022/05/19 11:15:19;;;;;;;;;;;27.00;49.60;;;;;;5071146;28;19913;-61
2022/05/19 11:17:56;;;;;;;;;;;27.00;49.40;;;;;;5071123;28;20420;-61
2022/05/19 11:20:23;;;;;;;;;;;27.00;49.50;;;;;;5071488;28;19912;-61
2022/05/19 11:22:50;;;;;;;;;;;27.00;49.40;;;;;;5076087;28;19908;-62
2022/05/19 11:28:12;;;;;;;;;;;27.10;49.50;;;;;;5075925;28;20453;-62
2022/05/19 11:30:39;;;;;;;;;;;27.10;49.30;;;;;;5058301;28;19918;-61
2022/05/19 11:33:05;;;;;;;;;;;27.10;49.40;;;;;;5074560;28;19943;-61
2022/05/19 11:35:32;;;;;;;;;;;27.10;49.20;;;;;;5076041;28;19909;-61
2022/05/19 11:38:13;;;;;;;;;;;27.10;49.20;;;;;;5075204;28;19908;-61
2022/05/19 11:40:40;;;;;;;;;;;27.10;49.40;;;;;;5074325;28;19936;-62
2022/05/19 11:43:07;;;;;;;;;;;27.10;49.60;;;;;;5074476;28;20003;-62
2022/05/19 11:45:48;;;;;;;;;;;27.10;49.60;;;;;;5074106;28;19951;-61
2022/05/19 11:56:45;;;;;;;;;;;27.10;49.70;;;;;;5074345;28;19916;-61
2022/05/19 11:59:10;;;;;;;;;;;27.10;49.70;;;;;;5074322;28;19908;-61
2022/05/19 12:01:38;;;;;;;;;;;27.20;49.60;;;;;;5075230;28;19912;-61
2022/05/19 12:04:24;;;;;;;;;;;27.20;49.60;;;;;;5074128;28;20376;-62
2022/05/19 12:06:54;;;;;;;;;;;27.20;49.30;;;;;;5073969;28;19916;-62
2022/05/19 12:09:29;;;;;;;;;;;27.30;49.40;;;;;;5073568;28;19908;-61
2022/05/19 12:11:59;;;;;;;;;;;27.30;49.10;;;;;;5075141;28;19908;-62
2022/05/19 12:14:24;;;;;;;;;;;27.30;49.40;;;;;;5073777;28;20086;-61
2022/05/19 12:16:52;;;;;;;;;;;27.40;49.20;;;;;;5075140;28;20014;-61
2022/05/19 12:19:29;;;;;;;;;;;27.30;49.40;;;;;;5075261;28;19917;-62
2022/05/19 12:21:55;;;;;;;;;;;27.40;49.20;;;;;;5075006;28;19908;-61
2022/05/19 12:24:24;;;;;;;;;;;27.40;49.40;;;;;;5073615;28;20008;-61
2022/05/19 12:26:51;;;;;;;;;;;27.40;49.30;;;;;;5073832;28;20433;-62
2022/05/19 12:29:27;;;;;;;;;;;27.40;48.90;;;;;;5074802;28;19916;-62
2022/05/19 12:31:59;;;;;;;;;;;27.40;49.00;;;;;;5073096;28;20360;-61
2022/05/19 12:34:45;;;;;;;;;;;27.40;49.00;;;;;;5079834;28;19913;-62
2022/05/19 12:37:30;;;;;;;;;;;27.50;49.10;;;;;;5074493;28;19915;-62
2022/05/19 12:40:15;;;;;;;;;;;27.50;48.60;;;;;;5074241;28;19955;-61
2022/05/19 12:42:40;;;;;;;;;;;27.60;48.50;;;;;;5074442;28;19915;-62
2022/05/19 12:45:15;;;;;;;;;;;27.60;48.20;;;;;;5071986;28;19913;-61
2022/05/19 12:48:13;;;;;;;;;;;27.60;48.00;;;;;;5073088;28;20457;-62
2022/05/19 12:50:57;;;;;;;;;;;27.70;47.90;;;;;;5062326;28;19912;-61
2022/05/19 12:53:23;;;;;;;;;;;27.70;48.00;;;;;;5074134;28;20408;-62
2022/05/19 12:55:55;;;;;;;;;;;27.70;47.90;;;;;;5074439;28;19951;-62
2022/05/19 12:58:37;;;;;;;;;;;27.70;47.90;;;;;;5073194;28;20204;-62
2022/05/19 13:01:15;;;;;;;;;;;27.70;48.00;;;;;;5074144;28;20201;-62
2022/05/19 13:03:40;;;;;;;;;;;27.70;47.80;;;;;;5074054;28;20001;-62
2022/05/19 13:06:06;;;;;;;;;;;27.70;47.90;;;;;;5074079;28;20341;-62
2022/05/19 13:08:36;;;;;;;;;;;27.70;47.90;;;;;;5073485;28;19969;-62
2022/05/19 13:11:04;;;;;;;;;;;27.70;48.00;;;;;;5056056;28;20368;-61
2022/05/19 13:13:31;;;;;;;;;;;27.70;48.00;;;;;;5072669;28;20014;-62
2022/05/19 13:15:57;;;;;;;;;;;27.70;47.90;;;;;;5072604;28;19962;-61
2022/05/19 13:18:27;;;;;;;;;;;27.70;48.00;;;;;;5072487;28;19908;-62
2022/05/19 13:20:52;;;;;;;;;;;27.70;48.10;;;;;;5072494;28;20392;-61
2022/05/19 13:23:24;;;;;;;;;;;27.70;48.40;;;;;;5072217;28;19909;-62
2022/05/19 13:25:50;;;;;;;;;;;27.70;48.40;;;;;;5072466;28;20003;-62
2022/05/19 13:31:15;;;;;;;;;;;27.70;48.20;;;;;;5073565;28;19914;-62
2022/05/19 13:33:41;;;;;;;;;;;27.80;48.00;;;;;;5073568;28;19920;-62
2022/05/19 13:36:07;;;;;;;;;;;27.80;47.90;;;;;;5073638;28;19909;-61
2022/05/19 13:38:33;;;;;;;;;;;27.80;47.50;;;;;;5072776;28;19913;-61
2022/05/19 13:40:58;;;;;;;;;;;27.80;47.40;;;;;;5072213;28;20414;-61
2022/05/19 13:43:25;;;;;;;;;;;27.80;47.70;;;;;;5072949;28;19908;-62
2022/05/19 13:45:51;;;;;;;;;;;27.90;47.90;;;;;;5071852;28;19928;-61
2022/05/19 13:48:23;;;;;;;;;;;27.90;47.40;;;;;;5072099;28;19980;-62
2022/05/19 13:50:49;;;;;;;;;;;27.90;47.10;;;;;;5078880;28;19909;-61
2022/05/19 13:53:15;;;;;;;;;;;27.90;47.30;;;;;;5071904;28;19912;-61
2022/05/19 13:55:40;;;;;;;;;;;27.90;47.50;;;;;;5072220;28;19993;-62
2022/05/19 13:58:06;;;;;;;;;;;27.90;47.40;;;;;;5073008;28;20284;-62
2022/05/19 14:00:35;;;;;;;;;;;27.90;47.20;;;;;;5072972;28;20269;-62
2022/05/19 14:03:00;;;;;;;;;;;27.90;47.00;;;;;;5071931;28;20291;-62
2022/05/19 14:05:33;;;;;;;;;;;27.90;47.00;;;;;;5072242;28;19959;-62
2022/05/19 14:07:59;;;;;;;;;;;27.90;47.10;;;;;;5071349;28;19912;-61
2022/05/19 14:10:25;;;;;;;;;;;27.90;47.10;;;;;;5071842;28;19931;-61
2022/05/19 14:12:51;;;;;;;;;;;27.90;47.20;;;;;;5071828;28;20439;-61
2022/05/19 14:15:16;;;;;;;;;;;27.80;46.80;;;;;;5073299;28;19952;-61
2022/05/19 14:17:44;;;;;;;;;;;27.90;46.80;;;;;;5072909;28;20346;-61
2022/05/19 14:20:13;;;;;;;;;;;27.90;46.90;;;;;;5073017;28;19935;-61
2022/05/19 14:22:38;;;;;;;;;;;27.90;46.80;;;;;;5071757;28;20415;-61
2022/05/19 14:25:05;;;;;;;;;;;27.90;47.30;;;;;;5071603;28;19958;-61
2022/05/19 14:27:30;;;;;;;;;;;27.90;47.20;;;;;;5071607;28;19908;-61
2022/05/19 14:29:55;;;;;;;;;;;28.00;47.30;;;;;;5071482;28;19916;-61
2022/05/19 14:32:21;;;;;;;;;;;28.00;47.20;;;;;;5072826;28;20009;-61
2022/05/19 14:34:46;;;;;;;;;;;28.00;47.00;;;;;;5072653;28;20007;-61
2022/05/19 14:37:16;;;;;;;;;;;28.00;47.30;;;;;;5072881;28;19940;-62
2022/05/19 14:39:42;;;;;;;;;;;28.00;47.20;;;;;;5072331;28;19920;-61
2022/05/19 14:45:09;;;;;;;;;;;28.00;47.60;;;;;;5071629;28;19916;-61
2022/05/19 14:47:40;;;;;;;;;;;28.00;47.40;;;;;;5072702;28;20380;-62
2022/05/19 14:50:09;;;;;;;;;;;28.00;47.30;;;;;;5071467;28;19995;-61